sensor_id;sensor_type;location;lat;lon;timestamp;P1;durP1;ratioP1;P2;durP2;ratioP2
13973;SDS011;7060;43.770;4.008;2023-03-03T00:00:44;15.07;;;10.93;;
13973;SDS011;7060;43.770;4.008;2023-03-03T00:03:14;19.37;;;11.70;;
13973;SDS011;7060;43.770;4.008;2023-03-03T00:05:44;17.03;;;11.60;;
13973;SDS011;7060;43.770;4.008;2023-03-03T00:08:13;18.77;;;12.63;;
13973;SDS011;7060;43.770;4.008;2023-03-03T00:10:41;17.47;;;12.20;;
13973;SDS011;7060;43.770;4.008;2023-03-03T00:13:14;17.53;;;11.67;;
13973;SDS011;7060;43.770;4.008;2023-03-03T00:15:46;14.73;;;11.93;;
13973;SDS011;7060;43.770;4.008;2023-03-03T00:18:20;16.37;;;12.23;;
13973;SDS011;7060;43.770;4.008;2023-03-03T00:20:52;17.00;;;12.70;;
13973;SDS011;7060;43.770;4.008;2023-03-03T00:23:25;17.70;;;13.07;;
13973;SDS011;7060;43.770;4.008;2023-03-03T00:25:58;18.93;;;12.93;;
13973;SDS011;7060;43.770;4.008;2023-03-03T00:28:27;18.23;;;13.00;;
13973;SDS011;7060;43.770;4.008;2023-03-03T00:30:59;17.53;;;13.00;;
13973;SDS011;7060;43.770;4.008;2023-03-03T00:33:30;18.30;;;12.90;;
13973;SDS011;7060;43.770;4.008;2023-03-03T00:36:08;18.80;;;13.90;;
13973;SDS011;7060;43.770;4.008;2023-03-03T00:38:49;19.90;;;13.47;;
13973;SDS011;7060;43.770;4.008;2023-03-03T00:41:18;20.17;;;12.97;;
13973;SDS011;7060;43.770;4.008;2023-03-03T00:43:50;20.70;;;12.87;;
13973;SDS011;7060;43.770;4.008;2023-03-03T00:46:22;17.57;;;12.70;;
13973;SDS011;7060;43.770;4.008;2023-03-03T00:48:51;18.03;;;12.97;;
13973;SDS011;7060;43.770;4.008;2023-03-03T00:51:28;17.40;;;12.77;;
13973;SDS011;7060;43.770;4.008;2023-03-03T00:53:58;18.13;;;12.57;;
13973;SDS011;7060;43.770;4.008;2023-03-03T00:56:27;20.73;;;14.27;;
13973;SDS011;7060;43.770;4.008;2023-03-03T00:58:55;17.10;;;13.00;;
13973;SDS011;7060;43.770;4.008;2023-03-03T01:01:28;17.03;;;12.93;;
13973;SDS011;7060;43.770;4.008;2023-03-03T01:03:56;17.83;;;13.07;;
13973;SDS011;7060;43.770;4.008;2023-03-03T01:06:25;15.67;;;11.73;;
13973;SDS011;7060;43.770;4.008;2023-03-03T01:08:53;28.93;;;16.97;;
13973;SDS011;7060;43.770;4.008;2023-03-03T01:11:23;26.97;;;16.27;;
13973;SDS011;7060;43.770;4.008;2023-03-03T01:13:54;19.93;;;13.67;;
13973;SDS011;7060;43.770;4.008;2023-03-03T01:16:25;23.10;;;14.40;;
13973;SDS011;7060;43.770;4.008;2023-03-03T01:18:55;22.83;;;15.37;;
13973;SDS011;7060;43.770;4.008;2023-03-03T01:21:23;25.13;;;15.50;;
13973;SDS011;7060;43.770;4.008;2023-03-03T01:23:52;20.43;;;14.60;;
13973;SDS011;7060;43.770;4.008;2023-03-03T01:26:20;19.13;;;14.07;;
13973;SDS011;7060;43.770;4.008;2023-03-03T01:28:49;21.73;;;13.57;;
13973;SDS011;7060;43.770;4.008;2023-03-03T01:31:17;22.50;;;14.47;;
13973;SDS011;7060;43.770;4.008;2023-03-03T01:33:46;20.27;;;13.60;;
13973;SDS011;7060;43.770;4.008;2023-03-03T01:36:16;20.40;;;13.67;;
13973;SDS011;7060;43.770;4.008;2023-03-03T01:38:50;22.23;;;14.53;;
13973;SDS011;7060;43.770;4.008;2023-03-03T01:41:19;23.70;;;15.27;;
13973;SDS011;7060;43.770;4.008;2023-03-03T01:43:48;23.27;;;15.43;;
13973;SDS011;7060;43.770;4.008;2023-03-03T01:46:28;29.50;;;17.83;;
13973;SDS011;7060;43.770;4.008;2023-03-03T01:49:05;26.67;;;16.63;;
13973;SDS011;7060;43.770;4.008;2023-03-03T01:51:41;29.40;;;16.53;;
13973;SDS011;7060;43.770;4.008;2023-03-03T01:54:16;69.17;;;28.63;;
13973;SDS011;7060;43.770;4.008;2023-03-03T01:56:48;37.23;;;19.93;;
13973;SDS011;7060;43.770;4.008;2023-03-03T01:59:19;25.90;;;16.13;;
13973;SDS011;7060;43.770;4.008;2023-03-03T02:01:50;25.47;;;16.50;;
13973;SDS011;7060;43.770;4.008;2023-03-03T02:04:19;25.30;;;16.17;;
13973;SDS011;7060;43.770;4.008;2023-03-03T02:06:51;21.27;;;14.30;;
13973;SDS011;7060;43.770;4.008;2023-03-03T02:09:26;23.07;;;13.80;;
13973;SDS011;7060;43.770;4.008;2023-03-03T02:12:02;19.63;;;13.33;;
13973;SDS011;7060;43.770;4.008;2023-03-03T02:14:33;20.17;;;12.70;;
13973;SDS011;7060;43.770;4.008;2023-03-03T02:17:02;19.67;;;13.63;;
13973;SDS011;7060;43.770;4.008;2023-03-03T02:19:33;19.37;;;13.17;;
13973;SDS011;7060;43.770;4.008;2023-03-03T02:22:11;21.07;;;14.07;;
13973;SDS011;7060;43.770;4.008;2023-03-03T02:24:45;22.80;;;15.30;;
13973;SDS011;7060;43.770;4.008;2023-03-03T02:27:19;19.67;;;13.73;;
13973;SDS011;7060;43.770;4.008;2023-03-03T02:29:48;23.40;;;15.20;;
13973;SDS011;7060;43.770;4.008;2023-03-03T02:32:17;19.70;;;13.53;;
13973;SDS011;7060;43.770;4.008;2023-03-03T02:34:46;20.40;;;13.37;;
13973;SDS011;7060;43.770;4.008;2023-03-03T02:37:17;19.67;;;13.60;;
13973;SDS011;7060;43.770;4.008;2023-03-03T02:39:46;47.63;;;22.20;;
13973;SDS011;7060;43.770;4.008;2023-03-03T02:42:15;40.07;;;20.93;;
13973;SDS011;7060;43.770;4.008;2023-03-03T02:44:53;35.00;;;18.57;;
13973;SDS011;7060;43.770;4.008;2023-03-03T02:47:22;32.23;;;17.83;;
13973;SDS011;7060;43.770;4.008;2023-03-03T02:49:50;24.37;;;15.73;;
13973;SDS011;7060;43.770;4.008;2023-03-03T02:52:19;23.93;;;14.13;;
13973;SDS011;7060;43.770;4.008;2023-03-03T02:54:48;27.23;;;15.87;;
13973;SDS011;7060;43.770;4.008;2023-03-03T02:57:16;29.77;;;17.23;;
13973;SDS011;7060;43.770;4.008;2023-03-03T02:59:46;25.10;;;15.13;;
13973;SDS011;7060;43.770;4.008;2023-03-03T03:02:17;23.20;;;14.57;;
13973;SDS011;7060;43.770;4.008;2023-03-03T03:04:46;19.27;;;13.07;;
13973;SDS011;7060;43.770;4.008;2023-03-03T03:07:19;24.93;;;14.50;;
13973;SDS011;7060;43.770;4.008;2023-03-03T03:09:48;23.60;;;14.53;;
13973;SDS011;7060;43.770;4.008;2023-03-03T03:12:16;20.03;;;13.43;;
13973;SDS011;7060;43.770;4.008;2023-03-03T03:14:49;18.53;;;12.33;;
13973;SDS011;7060;43.770;4.008;2023-03-03T03:17:19;16.90;;;11.40;;
13973;SDS011;7060;43.770;4.008;2023-03-03T03:19:50;17.97;;;12.10;;
13973;SDS011;7060;43.770;4.008;2023-03-03T03:22:18;26.27;;;14.53;;
13973;SDS011;7060;43.770;4.008;2023-03-03T03:24:47;29.47;;;17.37;;
13973;SDS011;7060;43.770;4.008;2023-03-03T03:27:16;31.33;;;17.47;;
13973;SDS011;7060;43.770;4.008;2023-03-03T03:29:46;29.10;;;16.63;;
13973;SDS011;7060;43.770;4.008;2023-03-03T03:32:16;27.00;;;15.80;;
13973;SDS011;7060;43.770;4.008;2023-03-03T03:34:46;24.13;;;15.10;;
13973;SDS011;7060;43.770;4.008;2023-03-03T03:37:15;20.07;;;13.47;;
13973;SDS011;7060;43.770;4.008;2023-03-03T03:39:44;22.80;;;14.47;;
13973;SDS011;7060;43.770;4.008;2023-03-03T03:42:13;24.30;;;15.87;;
13973;SDS011;7060;43.770;4.008;2023-03-03T03:44:42;23.23;;;13.63;;
13973;SDS011;7060;43.770;4.008;2023-03-03T03:47:10;22.40;;;14.03;;
13973;SDS011;7060;43.770;4.008;2023-03-03T03:49:39;26.17;;;16.57;;
13973;SDS011;7060;43.770;4.008;2023-03-03T03:52:09;26.07;;;16.33;;
13973;SDS011;7060;43.770;4.008;2023-03-03T03:54:37;19.90;;;12.10;;
13973;SDS011;7060;43.770;4.008;2023-03-03T03:57:06;16.70;;;11.63;;
13973;SDS011;7060;43.770;4.008;2023-03-03T03:59:35;18.67;;;11.60;;
13973;SDS011;7060;43.770;4.008;2023-03-03T04:02:03;16.40;;;11.13;;
13973;SDS011;7060;43.770;4.008;2023-03-03T04:04:32;17.70;;;11.53;;
13973;SDS011;7060;43.770;4.008;2023-03-03T04:07:01;19.70;;;11.67;;
13973;SDS011;7060;43.770;4.008;2023-03-03T04:09:31;21.07;;;13.30;;
13973;SDS011;7060;43.770;4.008;2023-03-03T04:12:00;25.23;;;14.57;;
13973;SDS011;7060;43.770;4.008;2023-03-03T04:14:29;19.90;;;13.10;;
13973;SDS011;7060;43.770;4.008;2023-03-03T04:16:58;19.73;;;11.77;;
13973;SDS011;7060;43.770;4.008;2023-03-03T04:19:27;16.03;;;11.17;;
13973;SDS011;7060;43.770;4.008;2023-03-03T04:21:55;17.07;;;11.67;;
13973;SDS011;7060;43.770;4.008;2023-03-03T04:24:24;18.23;;;11.70;;
13973;SDS011;7060;43.770;4.008;2023-03-03T04:26:55;18.40;;;11.67;;
13973;SDS011;7060;43.770;4.008;2023-03-03T04:29:24;18.40;;;11.63;;
13973;SDS011;7060;43.770;4.008;2023-03-03T04:31:52;16.07;;;10.83;;
13973;SDS011;7060;43.770;4.008;2023-03-03T04:34:21;18.47;;;12.40;;
13973;SDS011;7060;43.770;4.008;2023-03-03T04:36:50;49.10;;;27.10;;
13973;SDS011;7060;43.770;4.008;2023-03-03T04:39:18;35.43;;;19.33;;
13973;SDS011;7060;43.770;4.008;2023-03-03T04:41:47;21.97;;;14.40;;
13973;SDS011;7060;43.770;4.008;2023-03-03T04:44:18;22.27;;;12.93;;
13973;SDS011;7060;43.770;4.008;2023-03-03T04:46:47;20.40;;;12.00;;
13973;SDS011;7060;43.770;4.008;2023-03-03T04:49:16;20.07;;;11.57;;
13973;SDS011;7060;43.770;4.008;2023-03-03T04:51:45;16.80;;;11.27;;
13973;SDS011;7060;43.770;4.008;2023-03-03T04:54:14;16.10;;;11.00;;
13973;SDS011;7060;43.770;4.008;2023-03-03T04:56:43;17.13;;;11.00;;
13973;SDS011;7060;43.770;4.008;2023-03-03T04:59:12;21.60;;;13.17;;
13973;SDS011;7060;43.770;4.008;2023-03-03T05:01:44;18.63;;;12.63;;
13973;SDS011;7060;43.770;4.008;2023-03-03T05:04:21;18.17;;;12.07;;
13973;SDS011;7060;43.770;4.008;2023-03-03T05:06:50;17.87;;;11.50;;
13973;SDS011;7060;43.770;4.008;2023-03-03T05:09:18;23.33;;;12.83;;
13973;SDS011;7060;43.770;4.008;2023-03-03T05:11:47;18.47;;;12.53;;
13973;SDS011;7060;43.770;4.008;2023-03-03T05:14:15;20.77;;;12.63;;
13973;SDS011;7060;43.770;4.008;2023-03-03T05:16:45;21.47;;;13.37;;
13973;SDS011;7060;43.770;4.008;2023-03-03T05:19:13;19.80;;;12.70;;
13973;SDS011;7060;43.770;4.008;2023-03-03T05:21:42;23.90;;;12.77;;
13973;SDS011;7060;43.770;4.008;2023-03-03T05:24:11;18.47;;;12.30;;
13973;SDS011;7060;43.770;4.008;2023-03-03T05:26:40;15.20;;;11.47;;
13973;SDS011;7060;43.770;4.008;2023-03-03T05:29:09;19.03;;;11.63;;
13973;SDS011;7060;43.770;4.008;2023-03-03T05:31:37;34.87;;;23.83;;
13973;SDS011;7060;43.770;4.008;2023-03-03T05:34:07;29.63;;;19.37;;
13973;SDS011;7060;43.770;4.008;2023-03-03T05:36:37;17.07;;;11.37;;
13973;SDS011;7060;43.770;4.008;2023-03-03T05:39:05;18.07;;;11.10;;
13973;SDS011;7060;43.770;4.008;2023-03-03T05:41:34;17.43;;;11.03;;
13973;SDS011;7060;43.770;4.008;2023-03-03T05:44:02;18.27;;;11.47;;
13973;SDS011;7060;43.770;4.008;2023-03-03T05:46:31;17.70;;;11.87;;
13973;SDS011;7060;43.770;4.008;2023-03-03T05:49:00;17.77;;;11.57;;
13973;SDS011;7060;43.770;4.008;2023-03-03T05:51:30;15.93;;;11.33;;
13973;SDS011;7060;43.770;4.008;2023-03-03T05:53:58;17.87;;;12.03;;
13973;SDS011;7060;43.770;4.008;2023-03-03T05:56:27;19.10;;;12.00;;
13973;SDS011;7060;43.770;4.008;2023-03-03T05:58:55;17.90;;;10.93;;
13973;SDS011;7060;43.770;4.008;2023-03-03T06:01:23;17.07;;;11.57;;
13973;SDS011;7060;43.770;4.008;2023-03-03T06:03:52;18.37;;;11.20;;
13973;SDS011;7060;43.770;4.008;2023-03-03T06:06:23;21.67;;;12.20;;
13973;SDS011;7060;43.770;4.008;2023-03-03T06:08:53;17.60;;;11.60;;
13973;SDS011;7060;43.770;4.008;2023-03-03T06:11:23;20.43;;;11.93;;
13973;SDS011;7060;43.770;4.008;2023-03-03T06:13:52;18.47;;;11.90;;
13973;SDS011;7060;43.770;4.008;2023-03-03T06:16:22;20.30;;;12.47;;
13973;SDS011;7060;43.770;4.008;2023-03-03T06:18:51;19.67;;;13.40;;
13973;SDS011;7060;43.770;4.008;2023-03-03T06:21:20;20.03;;;13.03;;
13973;SDS011;7060;43.770;4.008;2023-03-03T06:23:49;21.30;;;12.63;;
13973;SDS011;7060;43.770;4.008;2023-03-03T06:26:18;22.63;;;14.10;;
13973;SDS011;7060;43.770;4.008;2023-03-03T06:28:47;18.33;;;13.43;;
13973;SDS011;7060;43.770;4.008;2023-03-03T06:31:15;19.07;;;12.53;;
13973;SDS011;7060;43.770;4.008;2023-03-03T06:33:44;19.37;;;13.00;;
13973;SDS011;7060;43.770;4.008;2023-03-03T06:36:12;20.20;;;13.90;;
13973;SDS011;7060;43.770;4.008;2023-03-03T06:38:41;25.27;;;13.43;;
13973;SDS011;7060;43.770;4.008;2023-03-03T06:41:10;20.93;;;11.73;;
13973;SDS011;7060;43.770;4.008;2023-03-03T06:43:40;18.00;;;11.87;;
13973;SDS011;7060;43.770;4.008;2023-03-03T06:46:08;23.40;;;13.10;;
13973;SDS011;7060;43.770;4.008;2023-03-03T06:48:38;23.73;;;13.67;;
13973;SDS011;7060;43.770;4.008;2023-03-03T06:51:10;25.07;;;14.80;;
13973;SDS011;7060;43.770;4.008;2023-03-03T06:53:47;22.00;;;14.00;;
13973;SDS011;7060;43.770;4.008;2023-03-03T06:56:16;21.77;;;13.70;;
13973;SDS011;7060;43.770;4.008;2023-03-03T06:58:46;24.03;;;13.53;;
13973;SDS011;7060;43.770;4.008;2023-03-03T07:01:17;22.13;;;13.90;;
13973;SDS011;7060;43.770;4.008;2023-03-03T07:03:45;22.07;;;14.23;;
13973;SDS011;7060;43.770;4.008;2023-03-03T07:06:16;20.07;;;13.13;;
13973;SDS011;7060;43.770;4.008;2023-03-03T07:08:49;17.87;;;11.53;;
13973;SDS011;7060;43.770;4.008;2023-03-03T07:11:19;17.63;;;11.07;;
13973;SDS011;7060;43.770;4.008;2023-03-03T07:13:50;24.83;;;11.43;;
13973;SDS011;7060;43.770;4.008;2023-03-03T07:16:23;21.70;;;12.23;;
13973;SDS011;7060;43.770;4.008;2023-03-03T07:18:54;17.87;;;11.60;;
13973;SDS011;7060;43.770;4.008;2023-03-03T07:21:29;19.57;;;12.27;;
13973;SDS011;7060;43.770;4.008;2023-03-03T07:24:01;20.00;;;13.03;;
13973;SDS011;7060;43.770;4.008;2023-03-03T07:26:44;19.30;;;12.07;;
13973;SDS011;7060;43.770;4.008;2023-03-03T07:29:18;20.50;;;12.43;;
13973;SDS011;7060;43.770;4.008;2023-03-03T07:31:51;20.43;;;13.30;;
13973;SDS011;7060;43.770;4.008;2023-03-03T07:34:21;21.83;;;13.30;;
13973;SDS011;7060;43.770;4.008;2023-03-03T07:36:52;22.93;;;14.27;;
13973;SDS011;7060;43.770;4.008;2023-03-03T07:39:33;18.67;;;13.10;;
13973;SDS011;7060;43.770;4.008;2023-03-03T07:42:14;25.47;;;13.80;;
13973;SDS011;7060;43.770;4.008;2023-03-03T07:44:55;27.60;;;13.73;;
13973;SDS011;7060;43.770;4.008;2023-03-03T07:47:26;26.07;;;14.90;;
13973;SDS011;7060;43.770;4.008;2023-03-03T07:49:57;25.40;;;14.43;;
13973;SDS011;7060;43.770;4.008;2023-03-03T07:52:29;17.77;;;13.23;;
13973;SDS011;7060;43.770;4.008;2023-03-03T07:55:19;23.00;;;12.70;;
13973;SDS011;7060;43.770;4.008;2023-03-03T07:57:53;15.37;;;11.73;;
13973;SDS011;7060;43.770;4.008;2023-03-03T08:03:39;16.63;;;12.50;;
13973;SDS011;7060;43.770;4.008;2023-03-03T08:06:23;18.17;;;12.27;;
13973;SDS011;7060;43.770;4.008;2023-03-03T08:09:00;17.27;;;12.23;;
13973;SDS011;7060;43.770;4.008;2023-03-03T08:11:41;17.20;;;12.63;;
13973;SDS011;7060;43.770;4.008;2023-03-03T08:14:19;16.53;;;13.10;;
13973;SDS011;7060;43.770;4.008;2023-03-03T08:16:54;17.70;;;12.80;;
13973;SDS011;7060;43.770;4.008;2023-03-03T08:19:27;15.63;;;11.93;;
13973;SDS011;7060;43.770;4.008;2023-03-03T08:21:58;16.80;;;12.80;;
13973;SDS011;7060;43.770;4.008;2023-03-03T08:24:30;17.23;;;12.37;;
13973;SDS011;7060;43.770;4.008;2023-03-03T08:26:58;14.07;;;11.13;;
13973;SDS011;7060;43.770;4.008;2023-03-03T08:29:27;18.17;;;12.17;;
13973;SDS011;7060;43.770;4.008;2023-03-03T08:31:55;14.37;;;12.00;;
13973;SDS011;7060;43.770;4.008;2023-03-03T08:34:24;16.87;;;12.10;;
13973;SDS011;7060;43.770;4.008;2023-03-03T08:36:54;13.37;;;11.47;;
13973;SDS011;7060;43.770;4.008;2023-03-03T08:39:24;14.53;;;11.20;;
13973;SDS011;7060;43.770;4.008;2023-03-03T08:41:52;16.10;;;12.20;;
13973;SDS011;7060;43.770;4.008;2023-03-03T08:44:21;14.50;;;10.70;;
13973;SDS011;7060;43.770;4.008;2023-03-03T08:46:49;16.00;;;11.40;;
13973;SDS011;7060;43.770;4.008;2023-03-03T08:49:19;15.30;;;10.97;;
13973;SDS011;7060;43.770;4.008;2023-03-03T08:51:54;15.20;;;11.03;;
13973;SDS011;7060;43.770;4.008;2023-03-03T08:54:22;13.07;;;10.00;;
13973;SDS011;7060;43.770;4.008;2023-03-03T08:56:51;13.40;;;10.47;;
13973;SDS011;7060;43.770;4.008;2023-03-03T08:59:19;14.67;;;11.07;;
13973;SDS011;7060;43.770;4.008;2023-03-03T09:01:48;13.50;;;10.60;;
13973;SDS011;7060;43.770;4.008;2023-03-03T09:04:16;15.77;;;10.67;;
13973;SDS011;7060;43.770;4.008;2023-03-03T09:06:45;14.93;;;11.67;;
13973;SDS011;7060;43.770;4.008;2023-03-03T09:09:15;16.03;;;10.90;;
13973;SDS011;7060;43.770;4.008;2023-03-03T09:11:43;15.73;;;11.20;;
13973;SDS011;7060;43.770;4.008;2023-03-03T09:14:13;15.60;;;11.63;;
13973;SDS011;7060;43.770;4.008;2023-03-03T09:16:44;14.17;;;11.03;;
13973;SDS011;7060;43.770;4.008;2023-03-03T09:19:18;17.37;;;12.07;;
13973;SDS011;7060;43.770;4.008;2023-03-03T09:21:50;16.53;;;11.83;;
13973;SDS011;7060;43.770;4.008;2023-03-03T09:24:26;15.33;;;11.50;;
13973;SDS011;7060;43.770;4.008;2023-03-03T09:26:57;17.23;;;11.83;;
13973;SDS011;7060;43.770;4.008;2023-03-03T09:29:26;14.93;;;10.87;;
13973;SDS011;7060;43.770;4.008;2023-03-03T09:31:57;15.77;;;11.73;;
13973;SDS011;7060;43.770;4.008;2023-03-03T09:34:33;14.83;;;12.03;;
13973;SDS011;7060;43.770;4.008;2023-03-03T09:37:17;17.33;;;11.83;;
13973;SDS011;7060;43.770;4.008;2023-03-03T09:39:51;17.60;;;11.20;;
13973;SDS011;7060;43.770;4.008;2023-03-03T09:42:33;15.47;;;11.43;;
13973;SDS011;7060;43.770;4.008;2023-03-03T09:45:21;14.77;;;11.10;;
13973;SDS011;7060;43.770;4.008;2023-03-03T09:48:21;17.70;;;12.13;;
13973;SDS011;7060;43.770;4.008;2023-03-03T09:51:03;14.73;;;11.63;;
13973;SDS011;7060;43.770;4.008;2023-03-03T09:56:42;13.37;;;10.33;;
13973;SDS011;7060;43.770;4.008;2023-03-03T09:59:27;14.37;;;11.13;;
13973;SDS011;7060;43.770;4.008;2023-03-03T10:02:18;12.90;;;10.40;;
13973;SDS011;7060;43.770;4.008;2023-03-03T10:05:03;13.90;;;10.03;;
13973;SDS011;7060;43.770;4.008;2023-03-03T10:07:43;12.87;;;9.67;;
13973;SDS011;7060;43.770;4.008;2023-03-03T10:10:24;12.63;;;9.90;;
13973;SDS011;7060;43.770;4.008;2023-03-03T10:13:25;14.17;;;10.57;;
13973;SDS011;7060;43.770;4.008;2023-03-03T10:16:11;14.63;;;10.63;;
13973;SDS011;7060;43.770;4.008;2023-03-03T10:18:50;15.37;;;11.80;;
13973;SDS011;7060;43.770;4.008;2023-03-03T10:21:26;16.07;;;10.80;;
13973;SDS011;7060;43.770;4.008;2023-03-03T10:24:02;12.67;;;9.73;;
13973;SDS011;7060;43.770;4.008;2023-03-03T10:26:50;11.97;;;9.17;;
13973;SDS011;7060;43.770;4.008;2023-03-03T10:29:42;14.03;;;10.40;;
13973;SDS011;7060;43.770;4.008;2023-03-03T10:32:25;12.90;;;9.90;;
13973;SDS011;7060;43.770;4.008;2023-03-03T10:35:17;14.03;;;10.60;;
13973;SDS011;7060;43.770;4.008;2023-03-03T10:38:10;11.80;;;9.17;;
13973;SDS011;7060;43.770;4.008;2023-03-03T10:40:54;11.73;;;9.37;;
13973;SDS011;7060;43.770;4.008;2023-03-03T10:43:36;12.00;;;9.43;;
13973;SDS011;7060;43.770;4.008;2023-03-03T10:46:25;12.27;;;9.90;;
13973;SDS011;7060;43.770;4.008;2023-03-03T10:49:19;12.60;;;9.43;;
13973;SDS011;7060;43.770;4.008;2023-03-03T10:54:50;11.17;;;9.00;;
13973;SDS011;7060;43.770;4.008;2023-03-03T10:57:32;11.47;;;8.70;;
13973;SDS011;7060;43.770;4.008;2023-03-03T11:00:16;10.47;;;8.17;;
13973;SDS011;7060;43.770;4.008;2023-03-03T11:06:00;10.97;;;8.70;;
13973;SDS011;7060;43.770;4.008;2023-03-03T11:08:33;11.07;;;8.70;;
13973;SDS011;7060;43.770;4.008;2023-03-03T11:11:09;11.20;;;8.33;;
13973;SDS011;7060;43.770;4.008;2023-03-03T11:13:44;13.03;;;8.63;;
13973;SDS011;7060;43.770;4.008;2023-03-03T11:19:11;12.83;;;9.40;;
13973;SDS011;7060;43.770;4.008;2023-03-03T11:21:56;12.47;;;8.10;;
13973;SDS011;7060;43.770;4.008;2023-03-03T11:24:38;9.47;;;8.30;;
13973;SDS011;7060;43.770;4.008;2023-03-03T11:27:19;12.73;;;8.40;;
13973;SDS011;7060;43.770;4.008;2023-03-03T11:30:11;13.57;;;8.67;;
13973;SDS011;7060;43.770;4.008;2023-03-03T11:33:01;12.40;;;9.13;;
13973;SDS011;7060;43.770;4.008;2023-03-03T11:35:35;10.33;;;9.07;;
13973;SDS011;7060;43.770;4.008;2023-03-03T11:41:14;10.90;;;8.67;;
13973;SDS011;7060;43.770;4.008;2023-03-03T11:43:50;10.77;;;8.37;;
13973;SDS011;7060;43.770;4.008;2023-03-03T11:46:23;10.70;;;8.20;;
13973;SDS011;7060;43.770;4.008;2023-03-03T11:48:57;9.90;;;8.10;;
13973;SDS011;7060;43.770;4.008;2023-03-03T11:51:32;10.83;;;8.33;;
13973;SDS011;7060;43.770;4.008;2023-03-03T11:54:14;11.80;;;8.27;;
13973;SDS011;7060;43.770;4.008;2023-03-03T11:56:49;9.83;;;7.93;;
13973;SDS011;7060;43.770;4.008;2023-03-03T11:59:33;9.90;;;7.30;;
13973;SDS011;7060;43.770;4.008;2023-03-03T12:02:14;10.00;;;8.27;;
13973;SDS011;7060;43.770;4.008;2023-03-03T12:05:06;16.60;;;8.53;;
13973;SDS011;7060;43.770;4.008;2023-03-03T12:07:40;10.70;;;7.63;;
13973;SDS011;7060;43.770;4.008;2023-03-03T12:10:18;9.83;;;7.50;;
13973;SDS011;7060;43.770;4.008;2023-03-03T12:12:55;12.17;;;8.00;;
13973;SDS011;7060;43.770;4.008;2023-03-03T12:15:32;9.43;;;7.53;;
13973;SDS011;7060;43.770;4.008;2023-03-03T12:18:09;8.63;;;6.47;;
13973;SDS011;7060;43.770;4.008;2023-03-03T12:20:50;9.50;;;7.10;;
13973;SDS011;7060;43.770;4.008;2023-03-03T12:23:35;10.40;;;6.97;;
13973;SDS011;7060;43.770;4.008;2023-03-03T12:26:16;10.47;;;8.00;;
13973;SDS011;7060;43.770;4.008;2023-03-03T12:28:54;9.30;;;6.80;;
13973;SDS011;7060;43.770;4.008;2023-03-03T12:31:32;10.10;;;6.87;;
13973;SDS011;7060;43.770;4.008;2023-03-03T12:34:12;8.33;;;6.77;;
13973;SDS011;7060;43.770;4.008;2023-03-03T12:36:49;8.50;;;5.87;;
13973;SDS011;7060;43.770;4.008;2023-03-03T12:39:29;7.97;;;6.40;;
13973;SDS011;7060;43.770;4.008;2023-03-03T12:42:17;11.27;;;7.30;;
13973;SDS011;7060;43.770;4.008;2023-03-03T12:44:56;8.67;;;6.23;;
13973;SDS011;7060;43.770;4.008;2023-03-03T12:47:33;8.77;;;6.73;;
13973;SDS011;7060;43.770;4.008;2023-03-03T12:50:13;8.80;;;6.10;;
13973;SDS011;7060;43.770;4.008;2023-03-03T12:52:56;8.90;;;6.63;;
13973;SDS011;7060;43.770;4.008;2023-03-03T12:55:37;7.87;;;6.33;;
13973;SDS011;7060;43.770;4.008;2023-03-03T12:58:18;9.07;;;6.27;;
13973;SDS011;7060;43.770;4.008;2023-03-03T13:00:58;8.13;;;5.90;;
13973;SDS011;7060;43.770;4.008;2023-03-03T13:03:37;7.93;;;5.67;;
13973;SDS011;7060;43.770;4.008;2023-03-03T13:06:26;7.80;;;5.77;;
13973;SDS011;7060;43.770;4.008;2023-03-03T13:09:08;6.30;;;5.63;;
13973;SDS011;7060;43.770;4.008;2023-03-03T13:12:01;8.93;;;5.40;;
13973;SDS011;7060;43.770;4.008;2023-03-03T13:14:40;8.57;;;5.17;;
13973;SDS011;7060;43.770;4.008;2023-03-03T13:17:22;6.67;;;5.63;;
13973;SDS011;7060;43.770;4.008;2023-03-03T13:19:55;7.43;;;5.27;;
13973;SDS011;7060;43.770;4.008;2023-03-03T13:22:31;7.33;;;5.73;;
13973;SDS011;7060;43.770;4.008;2023-03-03T13:25:05;7.57;;;5.50;;
13973;SDS011;7060;43.770;4.008;2023-03-03T13:27:45;7.60;;;5.73;;
13973;SDS011;7060;43.770;4.008;2023-03-03T13:30:19;6.80;;;5.73;;
13973;SDS011;7060;43.770;4.008;2023-03-03T13:32:53;6.77;;;4.90;;
13973;SDS011;7060;43.770;4.008;2023-03-03T13:35:31;9.00;;;5.50;;
13973;SDS011;7060;43.770;4.008;2023-03-03T13:38:05;11.37;;;5.17;;
13973;SDS011;7060;43.770;4.008;2023-03-03T13:40:40;7.60;;;5.73;;
13973;SDS011;7060;43.770;4.008;2023-03-03T13:43:14;8.37;;;4.83;;
13973;SDS011;7060;43.770;4.008;2023-03-03T13:45:49;7.97;;;5.70;;
13973;SDS011;7060;43.770;4.008;2023-03-03T13:48:29;6.90;;;5.33;;
13973;SDS011;7060;43.770;4.008;2023-03-03T13:51:14;8.73;;;6.10;;
13973;SDS011;7060;43.770;4.008;2023-03-03T13:53:52;7.03;;;5.50;;
13973;SDS011;7060;43.770;4.008;2023-03-03T13:56:34;8.13;;;5.10;;
13973;SDS011;7060;43.770;4.008;2023-03-03T13:59:19;6.73;;;5.77;;
13973;SDS011;7060;43.770;4.008;2023-03-03T14:01:56;8.47;;;5.33;;
13973;SDS011;7060;43.770;4.008;2023-03-03T14:04:38;6.77;;;5.10;;
13973;SDS011;7060;43.770;4.008;2023-03-03T14:07:17;6.97;;;5.57;;
13973;SDS011;7060;43.770;4.008;2023-03-03T14:09:52;10.17;;;5.23;;
13973;SDS011;7060;43.770;4.008;2023-03-03T14:12:33;6.63;;;5.10;;
13973;SDS011;7060;43.770;4.008;2023-03-03T14:15:10;5.87;;;5.27;;
13973;SDS011;7060;43.770;4.008;2023-03-03T14:20:47;10.97;;;6.00;;
13973;SDS011;7060;43.770;4.008;2023-03-03T14:23:19;7.23;;;5.57;;
13973;SDS011;7060;43.770;4.008;2023-03-03T14:25:53;7.50;;;5.03;;
13973;SDS011;7060;43.770;4.008;2023-03-03T14:28:26;8.40;;;5.60;;
13973;SDS011;7060;43.770;4.008;2023-03-03T14:30:56;9.50;;;5.20;;
13973;SDS011;7060;43.770;4.008;2023-03-03T14:33:29;8.03;;;4.97;;
13973;SDS011;7060;43.770;4.008;2023-03-03T14:36:02;5.97;;;5.10;;
13973;SDS011;7060;43.770;4.008;2023-03-03T14:38:37;6.00;;;4.83;;
13973;SDS011;7060;43.770;4.008;2023-03-03T14:41:18;11.53;;;5.40;;
13973;SDS011;7060;43.770;4.008;2023-03-03T14:43:55;11.33;;;4.90;;
13973;SDS011;7060;43.770;4.008;2023-03-03T14:46:33;7.60;;;4.63;;
13973;SDS011;7060;43.770;4.008;2023-03-03T14:49:04;7.53;;;5.17;;
13973;SDS011;7060;43.770;4.008;2023-03-03T14:51:42;7.10;;;5.70;;
13973;SDS011;7060;43.770;4.008;2023-03-03T14:54:14;7.50;;;5.63;;
13973;SDS011;7060;43.770;4.008;2023-03-03T14:56:55;7.30;;;5.37;;
13973;SDS011;7060;43.770;4.008;2023-03-03T14:59:37;6.87;;;5.83;;
13973;SDS011;7060;43.770;4.008;2023-03-03T15:02:19;7.00;;;5.67;;
13973;SDS011;7060;43.770;4.008;2023-03-03T15:05:10;10.57;;;6.07;;
13973;SDS011;7060;43.770;4.008;2023-03-03T15:07:46;9.40;;;5.87;;
13973;SDS011;7060;43.770;4.008;2023-03-03T15:10:27;7.47;;;6.13;;
13973;SDS011;7060;43.770;4.008;2023-03-03T15:16:09;17.43;;;6.73;;
13973;SDS011;7060;43.770;4.008;2023-03-03T15:18:51;7.97;;;5.63;;
13973;SDS011;7060;43.770;4.008;2023-03-03T15:21:36;8.53;;;5.10;;
13973;SDS011;7060;43.770;4.008;2023-03-03T15:24:14;10.63;;;6.07;;
13973;SDS011;7060;43.770;4.008;2023-03-03T15:26:49;8.33;;;6.50;;
13973;SDS011;7060;43.770;4.008;2023-03-03T15:29:23;7.97;;;5.83;;
13973;SDS011;7060;43.770;4.008;2023-03-03T15:31:58;12.73;;;6.37;;
13973;SDS011;7060;43.770;4.008;2023-03-03T15:34:34;8.73;;;5.57;;
13973;SDS011;7060;43.770;4.008;2023-03-03T15:37:10;8.00;;;6.50;;
13973;SDS011;7060;43.770;4.008;2023-03-03T15:39:56;6.83;;;6.10;;
13973;SDS011;7060;43.770;4.008;2023-03-03T15:42:31;9.07;;;6.80;;
13973;SDS011;7060;43.770;4.008;2023-03-03T15:45:09;10.87;;;7.27;;